Time;durP1;ratioP1;P1;durP2;ratioP2;P2;SDS_P1;SDS_P2;PMS_P1;PMS_P2;Temp;Humidity;BMP_temperature;BMP_pressure;BME280_temperature;BME280_humidity;BME280_pressure;Samples;Min_cycle;Max_cycle;Signal;HPM_P1;HPM_P2
2021/08/07 00:17:41;;;;;;;10.25;4.72;;;;;;;;;;4396356;28;20095;-73
2021/08/07 00:20:08;;;;;;;16.85;4.72;;;;;;;;;;4190903;34;20102;-74
2021/08/07 00:22:34;;;;;;;14.43;4.43;;;;;;;;;;4190202;34;20462;-69
2021/08/07 00:25:00;;;;;;;8.73;4.32;;;;;;;;;;4190146;34;20133;-69
2021/08/07 00:27:26;;;;;;;14.52;4.30;;;;;;;;;;4177526;34;20137;-73
2021/08/07 00:29:52;;;;;;;13.05;4.22;;;;;;;;;;4177404;34;20226;-73
2021/08/07 00:32:18;;;;;;;14.57;4.55;;;;;;;;;;4190132;34;20110;-74
2021/08/07 00:34:44;;;;;;;16.08;5.20;;;;;;;;;;4177392;34;20125;-69
2021/08/07 00:37:11;;;;;;;11.93;5.45;;;;;;;;;;4177387;34;20188;-66
2021/08/07 00:39:37;;;;;;;11.85;4.93;;;;;;;;;;4190307;34;20213;-69
2021/08/07 00:42:03;;;;;;;13.38;4.28;;;;;;;;;;4190238;34;20138;-69
2021/08/07 00:44:29;;;;;;;13.95;4.28;;;;;;;;;;4190305;34;20624;-69
2021/08/07 00:46:55;;;;;;;10.95;4.10;;;;;;;;;;4189727;34;20578;-67
2021/08/07 00:49:21;;;;;;;14.65;5.00;;;;;;;;;;4190503;34;20180;-73
2021/08/07 00:51:47;;;;;;;13.02;5.50;;;;;;;;;;4177095;34;20538;-69
2021/08/07 00:54:13;;;;;;;16.23;5.10;;;;;;;;;;4177852;34;20204;-70
2021/08/07 00:56:39;;;;;;;9.02;4.40;;;;;;;;;;4189744;34;20297;-67
2021/08/07 00:59:05;;;;;;;9.57;4.85;;;;;;;;;;4191521;34;20632;-70
2021/08/07 01:01:52;;;;;;;12.82;5.28;;;;;;;;;;4192189;34;20092;-67
2021/08/07 01:04:20;;;;;;;12.88;5.10;;;;;;;;;;4168414;34;20133;-74
2021/08/07 01:06:48;;;;;;;10.88;4.68;;;;;;;;;;4180111;34;20588;-71
2021/08/07 01:09:28;;;;;;;13.05;4.43;;;;;;;;;;4191958;34;20493;-73
2021/08/07 01:12:02;;;;;;;8.32;4.37;;;;;;;;;;4192148;34;20103;-67
2021/08/07 01:14:38;;;;;;;15.50;5.28;;;;;;;;;;4179518;34;20118;-69
2021/08/07 01:17:05;;;;;;;13.27;5.30;;;;;;;;;;4179282;34;20661;-69
2021/08/07 01:19:37;;;;;;;13.18;5.28;;;;;;;;;;4179231;34;20133;-69
2021/08/07 01:22:02;;;;;;;9.30;4.82;;;;;;;;;;4179544;34;20113;-67
2021/08/07 01:24:46;;;;;;;16.05;5.53;;;;;;;;;;4167743;34;20129;-69
2021/08/07 01:27:25;;;;;;;12.85;5.80;;;;;;;;;;4179988;34;20106;-69
2021/08/07 01:29:52;;;;;;;19.87;5.10;;;;;;;;;;4192151;34;20101;-73
2021/08/07 01:32:24;;;;;;;10.38;5.32;;;;;;;;;;4168064;34;20524;-69
2021/08/07 01:34:50;;;;;;;16.20;5.75;;;;;;;;;;4168235;34;20229;-69
2021/08/07 01:37:16;;;;;;;12.37;5.07;;;;;;;;;;4179061;34;20102;-74
2021/08/07 01:39:46;;;;;;;9.48;5.60;;;;;;;;;;4168094;34;20193;-66
2021/08/07 01:42:12;;;;;;;9.10;4.65;;;;;;;;;;4191638;34;20576;-69
2021/08/07 01:44:38;;;;;;;10.13;4.68;;;;;;;;;;4179009;34;20114;-68
2021/08/07 01:47:07;;;;;;;13.85;4.93;;;;;;;;;;4191751;34;20522;-71
2021/08/07 01:49:43;;;;;;;7.47;4.40;;;;;;;;;;4168065;34;20129;-69
2021/08/07 01:52:12;;;;;;;10.48;4.72;;;;;;;;;;4179053;34;20158;-72
2021/08/07 01:54:41;;;;;;;6.78;5.00;;;;;;;;;;4167674;34;20605;-68
2021/08/07 01:57:09;;;;;;;8.35;4.50;;;;;;;;;;4191377;34;20189;-66
2021/08/07 01:59:35;;;;;;;10.68;4.95;;;;;;;;;;4168748;34;20147;-69
2021/08/07 02:02:02;;;;;;;9.68;4.30;;;;;;;;;;4167491;34;20102;-69
2021/08/07 02:04:27;;;;;;;9.50;4.10;;;;;;;;;;4192064;34;20399;-69
2021/08/07 02:06:53;;;;;;;8.98;4.55;;;;;;;;;;4167520;34;20134;-69
2021/08/07 02:09:19;;;;;;;6.97;3.97;;;;;;;;;;4166686;34;20113;-66
2021/08/07 02:11:45;;;;;;;8.75;4.35;;;;;;;;;;4167475;34;20133;-66
2021/08/07 02:14:17;;;;;;;8.05;3.92;;;;;;;;;;4167627;34;20539;-69
2021/08/07 02:16:43;;;;;;;8.13;3.92;;;;;;;;;;4178909;34;20119;-70
2021/08/07 02:19:09;;;;;;;10.40;3.75;;;;;;;;;;4178722;34;20134;-68
2021/08/07 02:21:36;;;;;;;6.37;3.70;;;;;;;;;;4167465;34;20125;-68
2021/08/07 02:24:02;;;;;;;6.25;3.70;;;;;;;;;;4167828;34;20545;-67
2021/08/07 02:26:28;;;;;;;11.82;3.80;;;;;;;;;;4174836;34;20568;-70
2021/08/07 02:28:53;;;;;;;10.95;3.87;;;;;;;;;;4178969;34;20123;-70
2021/08/07 02:31:19;;;;;;;7.35;3.72;;;;;;;;;;4167179;34;20218;-70
2021/08/07 02:33:46;;;;;;;5.57;3.90;;;;;;;;;;4167500;34;20128;-67
2021/08/07 02:36:14;;;;;;;7.93;4.30;;;;;;;;;;4178893;34;20177;-70
2021/08/07 02:38:40;;;;;;;6.60;4.15;;;;;;;;;;4178643;34;20133;-67
2021/08/07 02:41:06;;;;;;;7.68;3.62;;;;;;;;;;4178691;34;20213;-74
2021/08/07 02:43:33;;;;;;;6.50;3.70;;;;;;;;;;4167396;34;20110;-73
2021/08/07 02:45:59;;;;;;;5.72;3.72;;;;;;;;;;4178535;34;20595;-67
2021/08/07 02:48:27;;;;;;;6.07;3.25;;;;;;;;;;4191778;34;20114;-74
2021/08/07 02:50:55;;;;;;;9.82;3.30;;;;;;;;;;4191261;34;20606;-75
2021/08/07 02:53:21;;;;;;;7.78;3.37;;;;;;;;;;4178562;34;20453;-70
2021/08/07 02:55:48;;;;;;;6.15;2.95;;;;;;;;;;4167062;34;20106;-70
2021/08/07 02:58:13;;;;;;;6.22;2.87;;;;;;;;;;4178269;34;20125;-73
2021/08/07 03:00:39;;;;;;;6.93;2.87;;;;;;;;;;4166947;34;20234;-71
2021/08/07 03:03:05;;;;;;;5.53;2.97;;;;;;;;;;4178806;34;20140;-74
2021/08/07 03:05:31;;;;;;;4.50;3.00;;;;;;;;;;4167178;34;20125;-67
2021/08/07 03:07:57;;;;;;;3.65;3.15;;;;;;;;;;4190848;34;20098;-67
2021/08/07 03:10:24;;;;;;;3.75;2.80;;;;;;;;;;4179429;34;20126;-75
2021/08/07 03:12:53;;;;;;;6.90;3.12;;;;;;;;;;4168554;34;20118;-70
2021/08/07 03:15:23;;;;;;;4.00;2.80;;;;;;;;;;4193709;34;20117;-68
2021/08/07 03:17:50;;;;;;;5.28;2.95;;;;;;;;;;4177365;34;20134;-70
2021/08/07 03:20:16;;;;;;;14.45;3.03;;;;;;;;;;4176918;34;20086;-68
2021/08/07 03:22:42;;;;;;;5.37;2.62;;;;;;;;;;4176951;34;20094;-69
2021/08/07 03:25:09;;;;;;;5.53;2.72;;;;;;;;;;4177559;34;20166;-72
2021/08/07 03:27:35;;;;;;;5.03;2.95;;;;;;;;;;4177139;34;20444;-66
2021/08/07 03:30:01;;;;;;;4.70;3.17;;;;;;;;;;4175765;34;20135;-73
2021/08/07 03:32:27;;;;;;;4.43;2.85;;;;;;;;;;4177155;34;20519;-69
2021/08/07 03:34:53;;;;;;;9.38;3.00;;;;;;;;;;4175664;34;20666;-66
2021/08/07 03:37:20;;;;;;;5.65;3.20;;;;;;;;;;4175835;34;20106;-67
2021/08/07 03:39:46;;;;;;;9.15;2.90;;;;;;;;;;4176970;34;20662;-70
2021/08/07 03:42:12;;;;;;;10.23;3.28;;;;;;;;;;4177443;34;20121;-69
2021/08/07 03:44:38;;;;;;;12.40;3.70;;;;;;;;;;4176988;34;20138;-72
2021/08/07 03:47:05;;;;;;;6.18;2.87;;;;;;;;;;4176997;34;20114;-73
2021/08/07 03:49:31;;;;;;;8.27;3.37;;;;;;;;;;4175908;34;20130;-73
2021/08/07 03:51:57;;;;;;;6.60;3.50;;;;;;;;;;4176919;34;20128;-67
2021/08/07 03:54:23;;;;;;;6.07;3.12;;;;;;;;;;4175396;34;20114;-67
2021/08/07 03:56:49;;;;;;;6.75;3.50;;;;;;;;;;4176901;34;20121;-67
2021/08/07 03:59:15;;;;;;;5.00;3.15;;;;;;;;;;4176905;34;20149;-71
2021/08/07 04:01:41;;;;;;;7.28;3.12;;;;;;;;;;4175482;34;20217;-74
2021/08/07 04:04:09;;;;;;;9.93;3.22;;;;;;;;;;4176820;34;20132;-69
2021/08/07 04:06:37;;;;;;;5.30;3.33;;;;;;;;;;4176908;34;20106;-66
2021/08/07 04:09:03;;;;;;;4.18;2.78;;;;;;;;;;4175607;34;20579;-69
2021/08/07 04:11:29;;;;;;;6.68;3.70;;;;;;;;;;4175837;34;20099;-66
2021/08/07 04:13:55;;;;;;;5.70;3.37;;;;;;;;;;4175434;34;20129;-69
2021/08/07 04:16:21;;;;;;;4.93;2.97;;;;;;;;;;4178170;34;20098;-73
2021/08/07 04:18:48;;;;;;;8.55;3.15;;;;;;;;;;4190320;34;20132;-73
2021/08/07 04:21:14;;;;;;;3.67;2.90;;;;;;;;;;4190411;34;20556;-69
2021/08/07 04:23:40;;;;;;;6.03;3.03;;;;;;;;;;4190178;34;20133;-72
2021/08/07 04:26:06;;;;;;;4.97;3.20;;;;;;;;;;4177557;34;20126;-66
2021/08/07 04:28:32;;;;;;;5.95;3.25;;;;;;;;;;4177414;34;20122;-66
2021/08/07 04:30:58;;;;;;;3.62;2.85;;;;;;;;;;4190041;34;20204;-66
2021/08/07 04:33:25;;;;;;;11.45;2.80;;;;;;;;;;4178409;34;20094;-69
2021/08/07 04:35:51;;;;;;;5.93;2.55;;;;;;;;;;4193305;34;20106;-69
2021/08/07 04:38:17;;;;;;;3.58;2.72;;;;;;;;;;4179572;34;20526;-69
2021/08/07 04:40:42;;;;;;;6.12;2.45;;;;;;;;;;4179986;34;20206;-72
2021/08/07 04:43:08;;;;;;;6.82;3.00;;;;;;;;;;4179459;34;20118;-68
2021/08/07 04:45:35;;;;;;;14.45;3.30;;;;;;;;;;4192140;34;20464;-73
2021/08/07 04:48:03;;;;;;;7.72;2.58;;;;;;;;;;4179236;34;20122;-69
2021/08/07 04:50:32;;;;;;;5.10;2.72;;;;;;;;;;4191747;34;20216;-69
2021/08/07 04:52:58;;;;;;;6.05;3.37;;;;;;;;;;4179229;34;20400;-69
2021/08/07 04:55:24;;;;;;;4.00;2.58;;;;;;;;;;4192686;34;20113;-74
2021/08/07 04:57:50;;;;;;;5.60;2.30;;;;;;;;;;4168266;34;20505;-69
2021/08/07 05:00:17;;;;;;;5.97;2.78;;;;;;;;;;4179532;34;20465;-68
2021/08/07 05:02:45;;;;;;;3.92;2.20;;;;;;;;;;4192008;34;20136;-70
2021/08/07 05:05:11;;;;;;;5.72;2.50;;;;;;;;;;4192558;34;20133;-66
2021/08/07 05:07:37;;;;;;;6.30;3.22;;;;;;;;;;4179150;34;20110;-66
2021/08/07 05:10:07;;;;;;;6.28;3.42;;;;;;;;;;4192380;34;20126;-70
2021/08/07 05:12:33;;;;;;;3.97;3.55;;;;;;;;;;4167683;34;20093;-74
2021/08/07 05:14:59;;;;;;;6.28;5.12;;;;;;;;;;4179174;34;20516;-69
2021/08/07 05:17:26;;;;;;;7.05;5.55;;;;;;;;;;4179240;34;20122;-69
2021/08/07 05:19:52;;;;;;;8.45;5.85;;;;;;;;;;4179416;34;20113;-72
2021/08/07 05:22:18;;;;;;;8.18;5.70;;;;;;;;;;4167989;34;20132;-67
2021/08/07 05:24:45;;;;;;;10.65;5.72;;;;;;;;;;4191971;34;20215;-72
2021/08/07 05:27:11;;;;;;;8.27;4.90;;;;;;;;;;4179076;34;20149;-69
2021/08/07 05:29:37;;;;;;;11.40;4.68;;;;;;;;;;4192004;34;20556;-69
2021/08/07 05:32:03;;;;;;;6.62;4.25;;;;;;;;;;4191583;34;20554;-72
2021/08/07 05:34:29;;;;;;;9.98;3.65;;;;;;;;;;4191824;34;20142;-66
2021/08/07 05:36:55;;;;;;;16.08;5.47;;;;;;;;;;4191763;34;20281;-67
2021/08/07 05:39:21;;;;;;;10.93;4.43;;;;;;;;;;4192001;34;20141;-71
2021/08/07 05:41:47;;;;;;;12.52;4.22;;;;;;;;;;4191684;34;20137;-71
2021/08/07 05:44:13;;;;;;;9.25;3.58;;;;;;;;;;4191662;34;20126;-72
2021/08/07 05:46:39;;;;;;;6.32;3.22;;;;;;;;;;4191795;34;20197;-72
2021/08/07 05:49:05;;;;;;;4.25;2.78;;;;;;;;;;4179085;34;20191;-66
2021/08/07 05:51:34;;;;;;;4.32;2.95;;;;;;;;;;4178929;34;20128;-66
2021/08/07 05:54:02;;;;;;;4.85;3.12;;;;;;;;;;4191824;34;20125;-71
2021/08/07 05:56:28;;;;;;;5.32;2.58;;;;;;;;;;4179093;34;20117;-69
2021/08/07 05:58:54;;;;;;;4.12;2.78;;;;;;;;;;4178917;34;20113;-71
2021/08/07 06:01:20;;;;;;;9.50;2.62;;;;;;;;;;4191564;34;20532;-73
2021/08/07 06:03:46;;;;;;;4.37;2.65;;;;;;;;;;4191489;34;20591;-71
2021/08/07 06:06:12;;;;;;;10.20;2.50;;;;;;;;;;4191885;34;20194;-67
2021/08/07 06:08:38;;;;;;;6.97;2.37;;;;;;;;;;4191679;34;20121;-72
2021/08/07 06:11:04;;;;;;;6.78;3.03;;;;;;;;;;4167153;34;20109;-67
2021/08/07 06:13:30;;;;;;;4.30;3.17;;;;;;;;;;4178883;34;20112;-69
2021/08/07 06:15:56;;;;;;;4.47;2.45;;;;;;;;;;4191357;34;20519;-69
2021/08/07 06:18:22;;;;;;;4.55;2.60;;;;;;;;;;4179340;34;20117;-72
2021/08/07 06:20:49;;;;;;;5.75;2.33;;;;;;;;;;4191694;34;20121;-72
2021/08/07 06:23:15;;;;;;;3.92;2.35;;;;;;;;;;4191443;34;20585;-69
2021/08/07 06:25:42;;;;;;;4.45;2.47;;;;;;;;;;4178928;34;20181;-71
2021/08/07 06:28:11;;;;;;;4.65;2.20;;;;;;;;;;4156649;34;20094;-66
2021/08/07 06:33:25;;;;;;;4.20;1.90;;;;;;;;;;4353492;28;20517;-71
2021/08/07 06:35:51;;;;;;;6.70;2.55;;;;;;;;;;4190067;34;20225;-69
2021/08/07 06:38:17;;;;;;;3.35;2.37;;;;;;;;;;4177399;34;20109;-70
2021/08/07 06:40:43;;;;;;;5.93;2.90;;;;;;;;;;4181005;34;20244;-71
2021/08/07 06:43:09;;;;;;;4.75;2.80;;;;;;;;;;4178582;34;20198;-72
2021/08/07 06:45:35;;;;;;;4.97;2.50;;;;;;;;;;4191549;34;20126;-71
2021/08/07 06:48:01;;;;;;;2.55;2.10;;;;;;;;;;4191215;34;20137;-71
2021/08/07 06:50:28;;;;;;;3.37;2.40;;;;;;;;;;4181293;34;20114;-68
2021/08/07 06:52:55;;;;;;;2.97;2.37;;;;;;;;;;4165034;34;20113;-71
2021/08/07 06:55:22;;;;;;;6.30;2.83;;;;;;;;;;4164418;34;20079;-72
2021/08/07 06:57:50;;;;;;;4.35;2.42;;;;;;;;;;4177428;34;20185;-69
2021/08/07 07:00:16;;;;;;;6.55;2.65;;;;;;;;;;4177889;34;20515;-66
2021/08/07 07:02:42;;;;;;;5.78;2.08;;;;;;;;;;4177500;34;20110;-69
2021/08/07 07:05:08;;;;;;;6.60;2.37;;;;;;;;;;4177683;34;20126;-71
2021/08/07 07:07:37;;;;;;;5.97;2.67;;;;;;;;;;4187610;34;20528;-71
2021/08/07 07:10:06;;;;;;;2.72;2.15;;;;;;;;;;4191008;34;20128;-71
2021/08/07 07:12:32;;;;;;;7.55;2.50;;;;;;;;;;4190928;34;20102;-71
2021/08/07 07:14:58;;;;;;;4.75;2.35;;;;;;;;;;4191024;34;20148;-67
2021/08/07 07:17:25;;;;;;;6.50;2.20;;;;;;;;;;4191104;34;20160;-70
2021/08/07 07:19:51;;;;;;;5.30;2.30;;;;;;;;;;4191250;34;20110;-68
2021/08/07 07:22:17;;;;;;;2.50;2.10;;;;;;;;;;4190848;34;20319;-66
2021/08/07 07:24:43;;;;;;;2.95;2.25;;;;;;;;;;4191248;34;20548;-70
2021/08/07 07:27:09;;;;;;;4.78;2.30;;;;;;;;;;4190688;34;20204;-69
2021/08/07 07:29:35;;;;;;;4.53;2.62;;;;;;;;;;4178644;34;20094;-66
2021/08/07 07:32:01;;;;;;;5.22;2.50;;;;;;;;;;4176263;34;20115;-66
2021/08/07 07:34:27;;;;;;;3.03;2.72;;;;;;;;;;4191016;34;20533;-71
2021/08/07 07:36:53;;;;;;;10.38;2.60;;;;;;;;;;4190795;34;20443;-66
2021/08/07 07:39:20;;;;;;;4.97;2.20;;;;;;;;;;4189573;34;20298;-72
2021/08/07 07:41:46;;;;;;;2.67;1.92;;;;;;;;;;4190711;34;20125;-71
2021/08/07 07:44:12;;;;;;;3.65;2.30;;;;;;;;;;4184389;34;20245;-72
2021/08/07 07:46:38;;;;;;;3.58;2.50;;;;;;;;;;4169240;34;20110;-67
2021/08/07 07:49:05;;;;;;;7.72;2.40;;;;;;;;;;4170122;34;20114;-68
2021/08/07 07:51:31;;;;;;;5.87;2.20;;;;;;;;;;4176961;34;20558;-70
2021/08/07 07:53:57;;;;;;;2.97;2.00;;;;;;;;;;4165450;34;20407;-69
2021/08/07 07:56:24;;;;;;;4.62;2.42;;;;;;;;;;4163584;34;20217;-66
2021/08/07 07:58:51;;;;;;;3.53;2.40;;;;;;;;;;4163806;34;20138;-72
2021/08/07 08:01:17;;;;;;;4.70;2.20;;;;;;;;;;4166669;34;20111;-66
2021/08/07 08:03:43;;;;;;;4.15;2.47;;;;;;;;;;4177991;34;20119;-69
2021/08/07 08:06:09;;;;;;;4.30;2.05;;;;;;;;;;4176871;34;20160;-73
2021/08/07 08:08:35;;;;;;;9.45;2.22;;;;;;;;;;4177627;34;20106;-73
2021/08/07 08:11:01;;;;;;;2.62;2.42;;;;;;;;;;4179396;34;20122;-69
2021/08/07 08:13:27;;;;;;;4.15;2.83;;;;;;;;;;4179111;34;20138;-69
2021/08/07 08:15:53;;;;;;;3.95;2.33;;;;;;;;;;4177672;34;20113;-73
2021/08/07 08:18:18;;;;;;;5.25;2.33;;;;;;;;;;4172853;34;20107;-72
2021/08/07 08:20:45;;;;;;;4.50;2.00;;;;;;;;;;4165474;34;20158;-73
2021/08/07 08:23:11;;;;;;;4.68;2.25;;;;;;;;;;4165385;34;20124;-67
2021/08/07 08:25:37;;;;;;;2.80;2.40;;;;;;;;;;4164170;34;20176;-72
2021/08/07 08:28:04;;;;;;;6.37;2.83;;;;;;;;;;4164866;34;20467;-68
2021/08/07 08:30:30;;;;;;;3.40;2.20;;;;;;;;;;4152512;34;20189;-69
2021/08/07 08:32:56;;;;;;;3.10;2.03;;;;;;;;;;4172394;34;20153;-66
2021/08/07 08:35:22;;;;;;;3.67;2.87;;;;;;;;;;4165945;34;20190;-71
2021/08/07 08:37:48;;;;;;;2.97;2.25;;;;;;;;;;4178462;34;20126;-73
2021/08/07 08:40:14;;;;;;;5.60;2.47;;;;;;;;;;4178556;34;20114;-73
2021/08/07 08:42:41;;;;;;;4.95;2.47;;;;;;;;;;4165693;34;20230;-69
2021/08/07 08:45:08;;;;;;;3.12;1.98;;;;;;;;;;4173381;34;20444;-71
2021/08/07 08:47:37;;;;;;;3.25;2.37;;;;;;;;;;4193090;34;20130;-69
2021/08/07 08:50:04;;;;;;;3.12;2.25;;;;;;;;;;4206037;34;20487;-69
2021/08/07 08:52:31;;;;;;;3.97;3.05;;;;;;;;;;4206284;34;20209;-67
2021/08/07 08:54:58;;;;;;;2.05;1.80;;;;;;;;;;4193175;34;20200;-71
2021/08/07 08:57:24;;;;;;;4.15;2.50;;;;;;;;;;4193902;34;20206;-70
2021/08/07 08:59:50;;;;;;;5.35;2.97;;;;;;;;;;4192836;34;20126;-73
2021/08/07 09:02:16;;;;;;;2.97;2.30;;;;;;;;;;4179370;34;20130;-66
2021/08/07 09:04:42;;;;;;;2.50;2.08;;;;;;;;;;4192243;34;20137;-73
2021/08/07 09:07:08;;;;;;;2.97;2.37;;;;;;;;;;4192210;34;20477;-67
2021/08/07 09:09:35;;;;;;;4.62;2.58;;;;;;;;;;4179339;34;20126;-69
2021/08/07 09:12:01;;;;;;;2.72;1.90;;;;;;;;;;4191992;34;20204;-72
2021/08/07 09:14:30;;;;;;;3.78;2.03;;;;;;;;;;4191885;34;20133;-71
2021/08/07 09:17:04;;;;;;;2.70;2.30;;;;;;;;;;4178958;34;20140;-72
2021/08/07 09:19:39;;;;;;;3.92;2.45;;;;;;;;;;4191565;34;20506;-66
2021/08/07 09:22:06;;;;;;;2.17;1.80;;;;;;;;;;4191831;34;20568;-70
2021/08/07 09:24:52;;;;;;;3.60;2.10;;;;;;;;;;4179110;34;20110;-69
2021/08/07 09:27:46;;;;;;;5.70;3.05;;;;;;;;;;4179361;34;20126;-72
2021/08/07 09:30:19;;;;;;;2.80;2.12;;;;;;;;;;4192027;34;20539;-72
2021/08/07 09:32:47;;;;;;;3.40;2.62;;;;;;;;;;4191634;34;20103;-70
2021/08/07 09:35:14;;;;;;;4.43;2.10;;;;;;;;;;4192048;34;20095;-64
2021/08/07 09:37:41;;;;;;;7.82;3.20;;;;;;;;;;4191671;34;20503;-71
2021/08/07 09:40:08;;;;;;;3.90;2.20;;;;;;;;;;4191870;34;20125;-67
2021/08/07 09:42:35;;;;;;;5.37;2.40;;;;;;;;;;4191885;34;20106;-67
2021/08/07 09:45:06;;;;;;;4.22;2.60;;;;;;;;;;4178928;34;20147;-72
2021/08/07 09:47:32;;;;;;;4.87;2.37;;;;;;;;;;4203970;34;20113;-72
2021/08/07 09:49:58;;;;;;;4.00;2.17;;;;;;;;;;4192672;34;20120;-68
2021/08/07 09:52:35;;;;;;;6.70;2.40;;;;;;;;;;4181775;34;20105;-66
2021/08/07 09:55:01;;;;;;;5.55;2.62;;;;;;;;;;4192888;34;20121;-68
2021/08/07 09:57:28;;;;;;;2.25;1.95;;;;;;;;;;4192453;34;20235;-64
2021/08/07 09:59:54;;;;;;;11.43;3.65;;;;;;;;;;4205200;34;20097;-64
2021/08/07 10:02:35;;;;;;;4.93;2.35;;;;;;;;;;4205359;34;20110;-66
2021/08/07 10:05:01;;;;;;;3.75;2.53;;;;;;;;;;4193260;34;20189;-71
2021/08/07 10:07:27;;;;;;;3.00;2.37;;;;;;;;;;4192707;34;20609;-68
2021/08/07 10:09:54;;;;;;;3.33;2.08;;;;;;;;;;4192466;34;20128;-67
2021/08/07 10:12:20;;;;;;;4.05;1.92;;;;;;;;;;4205217;34;20129;-70
2021/08/07 10:14:46;;;;;;;4.22;2.00;;;;;;;;;;4192755;34;20121;-66
2021/08/07 10:17:14;;;;;;;6.72;2.08;;;;;;;;;;4192263;34;20217;-71
2021/08/07 10:19:41;;;;;;;3.62;2.53;;;;;;;;;;4205320;34;20124;-73
2021/08/07 10:22:07;;;;;;;5.97;3.40;;;;;;;;;;4192706;34;20485;-74
2021/08/07 10:24:35;;;;;;;6.20;2.67;;;;;;;;;;4205543;34;20445;-66
2021/08/07 10:27:02;;;;;;;4.07;2.75;;;;;;;;;;4205087;34;20140;-70
2021/08/07 10:29:35;;;;;;;2.83;2.50;;;;;;;;;;4192816;34;20093;-65
2021/08/07 10:32:02;;;;;;;2.97;2.15;;;;;;;;;;4191403;34;20469;-70
2021/08/07 10:34:28;;;;;;;6.70;2.92;;;;;;;;;;4205132;34;20522;-71
2021/08/07 10:36:54;;;;;;;2.58;2.37;;;;;;;;;;4180912;34;20613;-74
2021/08/07 10:39:20;;;;;;;3.12;2.15;;;;;;;;;;4192477;34;20144;-67
2021/08/07 10:41:46;;;;;;;3.15;2.40;;;;;;;;;;4192096;34;20226;-69
2021/08/07 10:44:12;;;;;;;6.28;4.30;;;;;;;;;;4181064;34;20144;-68
2021/08/07 10:46:39;;;;;;;6.60;3.00;;;;;;;;;;4192052;34;20111;-67
2021/08/07 10:49:08;;;;;;;7.20;2.45;;;;;;;;;;4180775;34;20105;-69
2021/08/07 10:51:40;;;;;;;3.37;2.35;;;;;;;;;;4192687;34;20132;-70
2021/08/07 10:54:27;;;;;;;4.60;2.37;;;;;;;;;;4205057;34;20137;-67
2021/08/07 10:56:53;;;;;;;4.10;2.33;;;;;;;;;;4204818;34;20094;-73
2021/08/07 10:59:26;;;;;;;2.97;2.50;;;;;;;;;;4204847;34;20118;-72
2021/08/07 11:01:56;;;;;;;4.20;2.53;;;;;;;;;;4204699;34;20314;-71
2021/08/07 11:04:23;;;;;;;2.75;2.22;;;;;;;;;;4204899;34;20101;-73
2021/08/07 11:06:53;;;;;;;5.25;2.50;;;;;;;;;;4204953;34;20463;-66
2021/08/07 11:09:34;;;;;;;3.33;2.70;;;;;;;;;;4204792;34;20201;-72
2021/08/07 11:12:06;;;;;;;2.92;2.50;;;;;;;;;;4193409;34;20125;-67
2021/08/07 11:14:35;;;;;;;2.95;2.50;;;;;;;;;;4204720;34;20133;-72
2021/08/07 11:17:07;;;;;;;2.60;2.28;;;;;;;;;;4204639;34;20098;-70
2021/08/07 11:20:04;;;;;;;2.75;2.25;;;;;;;;;;4204770;34;20209;-70
2021/08/07 11:22:51;;;;;;;3.20;2.60;;;;;;;;;;4204841;34;20097;-70
2021/08/07 11:25:19;;;;;;;2.60;2.30;;;;;;;;;;4204742;34;20117;-69
2021/08/07 11:27:49;;;;;;;3.95;2.60;;;;;;;;;;4204349;34;20110;-71
2021/08/07 11:30:18;;;;;;;3.33;2.33;;;;;;;;;;4204444;34;20214;-70
2021/08/07 11:33:00;;;;;;;4.12;2.90;;;;;;;;;;4204326;34;20141;-69
2021/08/07 11:35:36;;;;;;;6.78;2.92;;;;;;;;;;4204597;34;20295;-70
2021/08/07 11:38:05;;;;;;;6.22;2.40;;;;;;;;;;4204512;34;20121;-70
2021/08/07 11:40:53;;;;;;;4.75;2.45;;;;;;;;;;4204691;34;20554;-69
2021/08/07 11:43:26;;;;;;;8.07;2.47;;;;;;;;;;4191324;34;20149;-70
2021/08/07 11:45:59;;;;;;;3.17;2.30;;;;;;;;;;4191725;34;20490;-71
2021/08/07 11:48:29;;;;;;;3.37;2.72;;;;;;;;;;4204483;34;20162;-71
2021/08/07 11:50:56;;;;;;;8.48;2.80;;;;;;;;;;4205167;34;20678;-65
2021/08/07 11:53:59;;;;;;;3.62;2.42;;;;;;;;;;4204816;34;20676;-65
2021/08/07 11:56:52;;;;;;;4.43;2.67;;;;;;;;;;4180752;34;20096;-71
2021/08/07 11:59:35;;;;;;;5.43;2.50;;;;;;;;;;4168359;34;20094;-71
2021/08/07 12:02:21;;;;;;;10.20;3.70;;;;;;;;;;4180629;34;20177;-72
2021/08/07 12:05:07;;;;;;;7.70;2.83;;;;;;;;;;4185385;34;20097;-70
2021/08/07 12:07:33;;;;;;;6.95;3.30;;;;;;;;;;4176815;34;20129;-71
2021/08/07 12:10:10;;;;;;;5.90;2.58;;;;;;;;;;4176698;34;20234;-65
2021/08/07 12:12:44;;;;;;;3.05;2.60;;;;;;;;;;4177818;34;20427;-65
2021/08/07 12:15:10;;;;;;;5.72;2.75;;;;;;;;;;4177500;34;20126;-64
2021/08/07 12:17:47;;;;;;;9.20;2.95;;;;;;;;;;4177357;34;20094;-64
2021/08/07 12:20:13;;;;;;;6.45;2.80;;;;;;;;;;4190226;34;20526;-63
2021/08/07 12:23:08;;;;;;;7.37;2.92;;;;;;;;;;4190182;34;20145;-65
2021/08/07 12:25:35;;;;;;;3.67;2.90;;;;;;;;;;4186643;34;20543;-63
2021/08/07 12:28:01;;;;;;;3.80;2.87;;;;;;;;;;4190219;34;20110;-70
2021/08/07 12:30:27;;;;;;;5.45;3.08;;;;;;;;;;4184577;34;20194;-71
2021/08/07 12:33:16;;;;;;;5.57;2.90;;;;;;;;;;4163413;34;20221;-73
2021/08/07 12:35:42;;;;;;;4.32;3.12;;;;;;;;;;4176441;34;20094;-71
2021/08/07 12:38:34;;;;;;;5.32;3.22;;;;;;;;;;4176624;34;20310;-73
2021/08/07 12:41:00;;;;;;;6.22;2.80;;;;;;;;;;4175813;34;20516;-68
2021/08/07 12:43:33;;;;;;;2.75;2.30;;;;;;;;;;4163506;34;20105;-68
2021/08/07 12:46:04;;;;;;;3.78;2.60;;;;;;;;;;4163460;34;20140;-68
2021/08/07 12:48:45;;;;;;;3.92;2.83;;;;;;;;;;4176435;34;20444;-68
2021/08/07 12:51:12;;;;;;;5.15;2.50;;;;;;;;;;4176120;34;20137;-67
2021/08/07 12:53:39;;;;;;;4.18;2.92;;;;;;;;;;4176742;34;20189;-67
2021/08/07 12:56:05;;;;;;;3.37;2.67;;;;;;;;;;4178785;34;20119;-67
2021/08/07 12:58:31;;;;;;;4.30;3.03;;;;;;;;;;4193070;34;20554;-68
2021/08/07 13:01:13;;;;;;;4.97;3.10;;;;;;;;;;4192926;34;20129;-68
2021/08/07 13:03:54;;;;;;;4.87;3.33;;;;;;;;;;4205679;34;20458;-68
2021/08/07 13:06:21;;;;;;;4.70;2.90;;;;;;;;;;4205637;34;20133;-68
2021/08/07 13:08:47;;;;;;;4.28;2.78;;;;;;;;;;4193019;34;20527;-74
2021/08/07 13:11:21;;;;;;;4.65;2.42;;;;;;;;;;4205709;34;20217;-73
2021/08/07 13:13:49;;;;;;;6.05;2.97;;;;;;;;;;4206032;34;20185;-73
2021/08/07 13:16:45;;;;;;;4.05;3.15;;;;;;;;;;4205944;34;20185;-70
2021/08/07 13:19:24;;;;;;;3.83;2.95;;;;;;;;;;4205852;34;20443;-71
2021/08/07 13:21:52;;;;;;;9.55;2.67;;;;;;;;;;4205599;34;20590;-72
2021/08/07 13:24:47;;;;;;;13.07;4.37;;;;;;;;;;4193078;34;20220;-72
2021/08/07 13:27:13;;;;;;;;;;;;;;;;;;4190093;34;20212;-67
2021/08/07 13:29:40;;;;;;;6.80;3.33;;;;;;;;;;4183883;34;20008;-67
2021/08/07 13:33:11;;;;;;;4.07;2.53;;;;;;;;;;4185557;34;20186;-68
2021/08/07 13:36:26;;;;;;;4.25;2.87;;;;;;;;;;4187336;34;20136;-75
2021/08/07 13:38:52;;;;;;;4.95;3.15;;;;;;;;;;4180181;34;20118;-75
2021/08/07 13:41:18;;;;;;;4.53;2.62;;;;;;;;;;4192476;34;20154;-76
2021/08/07 13:43:44;;;;;;;9.07;3.05;;;;;;;;;;4192444;34;20118;-75
2021/08/07 13:46:10;;;;;;;3.33;2.70;;;;;;;;;;4192520;34;20206;-74
2021/08/07 13:48:36;;;;;;;8.27;3.05;;;;;;;;;;4191744;34;20136;-74
2021/08/07 13:51:01;;;;;;;4.22;2.90;;;;;;;;;;4192096;34;20486;-74
2021/08/07 13:53:27;;;;;;;6.00;3.50;;;;;;;;;;4179396;34;20118;-74
2021/08/07 13:55:53;;;;;;;4.37;2.40;;;;;;;;;;4151829;34;20122;-74
2021/08/07 13:58:19;;;;;;;4.78;3.25;;;;;;;;;;4175843;34;20856;-73
2021/08/07 14:00:45;;;;;;;7.40;3.40;;;;;;;;;;4175788;34;20130;-73
2021/08/07 14:03:11;;;;;;;8.40;4.30;;;;;;;;;;4163528;34;20144;-74
2021/08/07 14:05:37;;;;;;;10.75;5.28;;;;;;;;;;4176884;34;20146;-73
2021/08/07 14:08:03;;;;;;;6.80;3.28;;;;;;;;;;4176715;34;20124;-74
2021/08/07 14:10:29;;;;;;;4.47;3.05;;;;;;;;;;4189131;34;20561;-73
2021/08/07 14:12:55;;;;;;;2.50;2.30;;;;;;;;;;4191963;34;20096;-72
2021/08/07 14:15:21;;;;;;;7.80;3.08;;;;;;;;;;4178832;34;20554;-73
2021/08/07 14:17:47;;;;;;;7.10;2.80;;;;;;;;;;4178623;34;20177;-73
2021/08/07 14:20:13;;;;;;;7.25;3.80;;;;;;;;;;4191599;34;20137;-66
2021/08/07 14:22:39;;;;;;;11.98;3.87;;;;;;;;;;4191248;34;20137;-66
2021/08/07 14:25:06;;;;;;;6.95;3.55;;;;;;;;;;4191398;34;20470;-67
2021/08/07 14:27:32;;;;;;;5.07;3.17;;;;;;;;;;4178380;34;20136;-67
2021/08/07 14:29:58;;;;;;;7.70;3.47;;;;;;;;;;4191313;34;20565;-67
2021/08/07 14:32:24;;;;;;;5.75;3.65;;;;;;;;;;4191131;34;20107;-65
2021/08/07 14:34:50;;;;;;;4.22;3.47;;;;;;;;;;4178376;34;20229;-66
2021/08/07 14:37:16;;;;;;;3.80;3.15;;;;;;;;;;4204042;34;20110;-67
2021/08/07 14:39:42;;;;;;;11.12;4.57;;;;;;;;;;4204817;34;20125;-66
2021/08/07 14:42:09;;;;;;;6.35;3.95;;;;;;;;;;4204740;34;20094;-68
2021/08/07 14:44:35;;;;;;;9.25;4.45;;;;;;;;;;4192018;34;20220;-66
2021/08/07 14:47:00;;;;;;;6.62;3.92;;;;;;;;;;4192057;34;20138;-67
2021/08/07 14:49:26;;;;;;;7.85;3.83;;;;;;;;;;4204858;34;20213;-67
2021/08/07 14:51:56;;;;;;;10.13;4.90;;;;;;;;;;4204559;34;20132;-67
2021/08/07 14:54:22;;;;;;;6.60;4.07;;;;;;;;;;4205158;34;20096;-66
2021/08/07 14:56:48;;;;;;;10.40;3.95;;;;;;;;;;4204750;34;20109;-66
2021/08/07 14:59:14;;;;;;;5.85;3.62;;;;;;;;;;4191902;34;20245;-67
2021/08/07 15:01:40;;;;;;;9.27;4.87;;;;;;;;;;4204602;34;20140;-66
2021/08/07 15:04:06;;;;;;;8.95;6.57;;;;;;;;;;4205060;34;20477;-65
2021/08/07 15:06:32;;;;;;;11.10;6.00;;;;;;;;;;4204541;34;20161;-64
2021/08/07 15:08:58;;;;;;;7.95;5.22;;;;;;;;;;4203017;34;20621;-64